In Rescue
 
Open Full Screen Window  High Contrast Mode
Wind Gusting 16 knots
07
May 25, 2022 9:37 PM EDT
Present Weather: Light Rain
Weather Information
Wind Direction
  130 °
Wind Speed
  07 kt (8 mph)
Wind Gust
  16 kt (18 mph)
Altimeter
29.91 in
Visibility
10 SM
Temperature
20° C
68° F
Dewpoint
18° C
64° F
Humidity
88%
1hr Rain Fall
00.01 in.
24hr Rain Fall
00.63 in.
Sky Condition
Broken @ 8,000 ft
Scattered @ 3,000 ft
Scattered @ 2,400 ft
VFR

METAR KRMY 260137Z AUTO 13007G16KT 10SM -RA SCT024 SCT030 BKN080 20/18 A2991 RMK AO2 T01990182 P0001

FAA Disclaimer: The data displayed is for advisory purposes only and is not to be used for flight planning or operations.